Time;durP1;ratioP1;P1;durP2;ratioP2;P2;SDS_P1;SDS_P2;PMS_P1;PMS_P2;Temp;Humidity;BMP_temperature;BMP_pressure;BME280_temperature;BME280_humidity;BME280_pressure;Samples;Min_cycle;Max_cycle;Signal;HPM_P1;HPM_P2
2021/01/26 00:00:45;;;;;;;32.77;20.40;;;;;;;0.56;77.41;100106.75;5102486;28;20241;-82
2021/01/26 00:03:12;;;;;;;38.93;22.27;;;;;;;0.57;77.65;100119.81;5102141;28;20233;-81
2021/01/26 00:05:38;;;;;;;34.57;21.33;;;;;;;0.57;77.63;100111.94;5095742;28;20223;-81
2021/01/26 00:08:05;;;;;;;33.10;21.17;;;;;;;0.60;77.94;100111.00;5089409;28;20203;-80
2021/01/26 00:10:32;;;;;;;34.23;21.93;;;;;;;0.59;77.85;100104.91;5083756;28;20259;-81
2021/01/26 00:12:58;;;;;;;36.43;21.73;;;;;;;0.59;77.67;100109.28;5085651;28;20212;-81
2021/01/26 00:15:24;;;;;;;34.80;21.43;;;;;;;0.59;77.85;100107.50;5088749;28;20204;-81
2021/01/26 00:17:50;;;;;;;35.33;23.37;;;;;;;0.58;78.13;100102.31;5086971;28;20200;-81
2021/01/26 00:20:17;;;;;;;38.83;22.00;;;;;;;0.60;77.99;100111.00;5092103;28;20217;-81
2021/01/26 00:22:43;;;;;;;35.73;22.20;;;;;;;0.60;78.20;100101.38;5094571;28;20227;-81
2021/01/26 00:25:11;;;;;;;32.10;20.37;;;;;;;0.60;78.19;100100.50;5093497;28;20205;-81
2021/01/26 00:27:38;;;;;;;35.83;21.53;;;;;;;0.59;78.35;100099.66;5099455;28;20230;-81
2021/01/26 00:30:06;;;;;;;35.07;20.03;;;;;;;0.60;78.56;100098.75;5090095;28;20219;-82
2021/01/26 00:32:32;;;;;;;32.40;20.53;;;;;;;0.59;78.44;100089.16;5083658;28;20207;-79
2021/01/26 00:34:59;;;;;;;31.63;20.53;;;;;;;0.61;78.69;100097.00;5101937;28;20551;-79
2021/01/26 00:37:25;;;;;;;32.47;19.83;;;;;;;0.61;78.74;100097.00;5101788;28;20200;-80
2021/01/26 00:39:51;;;;;;;30.73;19.53;;;;;;;0.62;78.44;100094.31;5102483;28;20208;-80
2021/01/26 00:42:17;;;;;;;33.67;19.80;;;;;;;0.62;78.45;100086.47;5093048;28;20657;-81
2021/01/26 00:44:44;;;;;;;30.73;19.40;;;;;;;0.63;78.66;100088.19;5086351;28;20218;-81
2021/01/26 00:47:10;;;;;;;29.03;18.57;;;;;;;0.62;78.71;100099.56;5085503;28;21407;-80
2021/01/26 00:49:36;;;;;;;28.27;18.83;;;;;;;0.64;78.47;100094.28;5083652;28;20226;-80
2021/01/26 00:52:02;;;;;;;29.77;18.67;;;;;;;0.64;78.61;100099.53;5090614;28;20287;-79
2021/01/26 00:54:28;;;;;;;23.87;16.33;;;;;;;0.65;78.81;100091.63;5094497;28;20200;-79
2021/01/26 00:56:54;;;;;;;28.90;18.00;;;;;;;0.64;78.63;100092.50;5096783;28;20235;-79
2021/01/26 00:59:20;;;;;;;25.80;16.80;;;;;;;0.66;78.64;100079.38;5088581;28;20240;-79
2021/01/26 01:01:47;;;;;;;21.60;14.20;;;;;;;0.68;78.59;100082.81;5087888;28;20251;-79
2021/01/26 01:04:13;;;;;;;24.57;15.17;;;;;;;0.69;78.63;100081.91;5089733;28;20240;-79
2021/01/26 01:06:39;;;;;;;19.27;13.57;;;;;;;0.68;78.59;100078.41;5089388;28;20693;-79
2021/01/26 01:09:05;;;;;;;20.20;13.53;;;;;;;0.69;78.55;100066.16;5085346;28;20201;-79
2021/01/26 01:11:31;;;;;;;22.20;14.17;;;;;;;0.71;78.70;100074.84;5078241;28;20227;-79
2021/01/26 01:13:57;;;;;;;25.17;14.27;;;;;;;0.71;78.35;100069.59;5083722;28;20212;-80
2021/01/26 01:16:23;;;;;;;21.27;14.53;;;;;;;0.71;78.39;100066.97;5092411;28;20200;-80
2021/01/26 01:18:50;;;;;;;20.73;14.57;;;;;;;0.71;78.17;100066.13;5093099;28;20197;-80
2021/01/26 01:21:16;;;;;;;22.33;14.40;;;;;;;0.71;78.42;100060.88;5096875;28;20223;-80
2021/01/26 01:23:42;;;;;;;24.30;16.33;;;;;;;0.73;78.41;100069.53;5088707;28;20236;-80
2021/01/26 01:26:08;;;;;;;23.87;15.17;;;;;;;0.72;78.49;100068.66;5093403;28;20312;-78
2021/01/26 01:28:34;;;;;;;24.27;14.50;;;;;;;0.72;78.33;100073.09;5095585;28;20208;-79
2021/01/26 01:31:00;;;;;;;25.30;14.30;;;;;;;0.73;78.53;100077.38;5086863;28;20220;-78
2021/01/26 01:33:26;;;;;;;23.97;16.00;;;;;;;0.74;78.13;100061.63;5084641;28;20212;-78
2021/01/26 01:35:53;;;;;;;28.07;15.67;;;;;;;0.73;78.44;100064.28;5090891;28;20633;-79
2021/01/26 01:38:19;;;;;;;26.50;15.63;;;;;;;0.75;78.38;100067.72;5090109;28;20211;-80
2021/01/26 01:40:45;;;;;;;24.33;14.53;;;;;;;0.75;78.66;100062.47;5098632;28;20220;-81
2021/01/26 01:43:11;;;;;;;26.30;15.13;;;;;;;0.73;78.89;100059.91;5091217;28;20216;-80
2021/01/26 01:45:37;;;;;;;27.10;15.73;;;;;;;0.73;78.91;100059.03;5097259;28;20212;-80
2021/01/26 01:48:07;;;;;;;27.20;16.17;;;;;;;0.72;78.98;100055.56;5088803;28;20204;-79
2021/01/26 01:50:37;;;;;;;31.77;19.03;;;;;;;0.71;79.11;100055.66;5091778;28;20235;-79
2021/01/26 01:53:09;;;;;;;33.03;17.73;;;;;;;0.68;79.06;100053.97;5100451;28;20222;-79
2021/01/26 01:55:40;;;;;;;31.50;19.30;;;;;;;0.65;79.24;100049.69;5095175;28;20192;-79
2021/01/26 01:58:12;;;;;;;30.23;18.40;;;;;;;0.62;79.18;100041.91;5095591;28;20658;-78
2021/01/26 02:00:38;;;;;;;28.40;17.40;;;;;;;0.60;79.34;100043.72;5098354;28;20227;-80
2021/01/26 02:03:11;;;;;;;28.47;17.97;;;;;;;0.58;79.43;100042.06;5098703;28;20204;-81
2021/01/26 02:05:38;;;;;;;29.17;16.93;;;;;;;0.57;79.69;100042.97;5098673;28;20211;-79
2021/01/26 02:08:12;;;;;;;29.70;17.73;;;;;;;0.57;79.90;100048.19;5090833;28;20208;-81
2021/01/26 02:10:38;;;;;;;25.90;17.60;;;;;;;0.55;79.70;100035.16;5094299;28;20220;-80
2021/01/26 02:13:04;;;;;;;23.63;15.33;;;;;;;0.54;79.70;100032.56;5091837;28;20204;-79
2021/01/26 02:15:30;;;;;;;25.03;15.67;;;;;;;0.55;79.85;100036.91;5088616;28;20204;-78
2021/01/26 02:18:11;;;;;;;26.73;14.97;;;;;;;0.54;80.18;100027.34;5099911;28;20205;-79
2021/01/26 02:21:14;;;;;;;26.10;16.13;;;;;;;0.54;80.02;100037.81;5099222;28;20219;-77
2021/01/26 02:24:16;;;;;;;22.73;15.47;;;;;;;0.53;80.17;100029.13;5087482;28;20591;-79
2021/01/26 02:27:21;;;;;;;25.70;15.57;;;;;;;0.51;80.00;100032.69;5098136;28;20228;-79
2021/01/26 02:30:11;;;;;;;25.57;15.33;;;;;;;0.51;80.19;100028.31;5098776;28;20575;-79
2021/01/26 02:32:56;;;;;;;24.17;15.20;;;;;;;0.50;80.31;100034.47;5089148;28;20266;-77
2021/01/26 02:35:43;;;;;;;26.53;15.80;;;;;;;0.50;80.32;100042.31;5092891;28;20595;-78
2021/01/26 02:38:37;;;;;;;28.43;15.90;;;;;;;0.50;80.33;100037.09;5089852;28;20683;-78
2021/01/26 02:41:07;;;;;;;24.47;15.00;;;;;;;0.51;80.29;100038.78;5095225;28;20717;-79
2021/01/26 02:43:45;;;;;;;29.10;17.53;;;;;;;0.51;80.40;100033.56;5091690;28;20201;-78
2021/01/26 02:46:17;;;;;;;21.37;15.27;;;;;;;0.51;80.37;100036.19;5089544;28;20344;-79
2021/01/26 02:48:57;;;;;;;24.60;17.00;;;;;;;0.49;80.62;100031.88;5089648;28;20197;-79
2021/01/26 02:51:43;;;;;;;24.23;16.17;;;;;;;0.48;80.59;100028.41;5093507;28;20224;-79
2021/01/26 02:54:21;;;;;;;27.93;16.17;;;;;;;0.47;80.55;100037.19;5091783;28;20649;-78
2021/01/26 02:56:55;;;;;;;26.47;15.87;;;;;;;0.47;80.46;100031.94;5094591;28;20191;-79
2021/01/26 02:59:29;;;;;;;24.20;16.40;;;;;;;0.48;80.81;100027.56;5095097;28;20208;-79
2021/01/26 03:02:00;;;;;;;24.70;15.70;;;;;;;0.48;80.68;100030.16;5093556;28;20228;-78
2021/01/26 03:04:34;;;;;;;23.27;15.73;;;;;;;0.48;80.77;100027.56;5092838;28;20208;-78
2021/01/26 03:07:04;;;;;;;25.50;15.07;;;;;;;0.49;80.93;100027.50;5083474;28;20234;-78
2021/01/26 03:09:34;;;;;;;19.80;14.20;;;;;;;0.49;81.03;100026.66;5098684;28;20387;-79
2021/01/26 03:12:06;;;;;;;27.70;15.60;;;;;;;0.50;80.94;100023.97;5086359;28;20224;-78
2021/01/26 03:14:39;;;;;;;23.70;14.73;;;;;;;0.49;80.75;100024.88;5097843;28;20565;-79
2021/01/26 03:17:11;;;;;;;26.60;15.27;;;;;;;0.51;80.85;100028.31;5085321;28;20684;-78
2021/01/26 03:19:40;;;;;;;22.47;16.23;;;;;;;0.50;81.06;100021.38;5092001;28;20216;-78
2021/01/26 03:22:10;;;;;;;24.00;16.23;;;;;;;0.51;80.92;100020.47;5094557;28;20224;-79
2021/01/26 03:24:39;;;;;;;25.03;15.87;;;;;;;0.51;80.75;100019.59;5060971;22;20230;-80
2021/01/26 03:27:12;;;;;;;26.17;17.10;;;;;;;0.51;80.87;100022.22;5021657;28;20272;-80
2021/01/26 03:29:41;;;;;;;26.93;16.03;;;;;;;0.50;80.94;100023.13;5022142;28;20241;-80
2021/01/26 03:32:12;;;;;;;26.83;17.03;;;;;;;0.47;80.73;100031.94;5026189;28;20203;-80
2021/01/26 03:34:38;;;;;;;26.47;17.10;;;;;;;0.47;81.18;100026.69;5030345;28;20222;-79
2021/01/26 03:37:06;;;;;;;24.87;16.23;;;;;;;0.46;81.32;100024.13;5031808;28;20203;-80
2021/01/26 03:39:32;;;;;;;24.70;16.43;;;;;;;0.44;81.14;100021.53;5021955;28;20206;-79
2021/01/26 03:42:00;;;;;;;26.60;16.93;;;;;;;0.42;81.07;100025.97;5026754;28;20207;-79
2021/01/26 03:44:28;;;;;;;29.37;17.87;;;;;;;0.40;81.28;100030.41;5026538;28;20256;-79
2021/01/26 03:47:05;;;;;;;28.33;17.73;;;;;;;0.38;81.27;100024.34;5027489;28;20227;-79
2021/01/26 03:49:44;;;;;;;26.83;17.43;;;;;;;0.37;81.45;100027.88;5032552;28;20212;-78
2021/01/26 03:52:22;;;;;;;25.37;16.23;;;;;;;0.34;81.55;100018.38;5028301;28;20213;-78
2021/01/26 03:54:58;;;;;;;25.50;16.53;;;;;;;0.32;81.54;100014.94;5028866;28;20227;-79
2021/01/26 03:57:43;;;;;;;27.40;17.03;;;;;;;0.31;81.64;100022.84;5039180;28;20225;-78
2021/01/26 04:00:15;;;;;;;25.30;16.17;;;;;;;0.29;81.63;100017.66;5024377;28;20257;-79
2021/01/26 04:02:54;;;;;;;28.27;16.73;;;;;;;0.27;81.74;100010.75;5037544;28;20206;-78
2021/01/26 04:05:22;;;;;;;26.13;16.80;;;;;;;0.24;82.16;100013.47;5028570;28;20223;-78
2021/01/26 04:07:55;;;;;;;28.60;18.03;;;;;;;0.20;81.89;100010.06;5023741;28;20232;-78
2021/01/26 04:10:29;;;;;;;27.63;17.10;;;;;;;0.19;82.10;100007.50;5027091;28;20214;-78
2021/01/26 04:12:59;;;;;;;27.17;17.00;;;;;;;0.18;82.22;100021.53;5017743;28;20576;-78
2021/01/26 04:15:33;;;;;;;24.90;15.73;;;;;;;0.17;82.33;100017.19;5030092;28;20229;-78
2021/01/26 04:18:00;;;;;;;28.73;17.13;;;;;;;0.17;82.18;100018.06;5031260;28;20216;-78
2021/01/26 04:20:31;;;;;;;27.07;18.03;;;;;;;0.18;82.63;100021.53;5024436;28;20267;-78
2021/01/26 04:22:59;;;;;;;29.20;16.70;;;;;;;0.16;82.74;100021.56;5031929;28;20210;-78
2021/01/26 04:25:29;;;;;;;25.13;16.77;;;;;;;0.16;82.84;100021.56;5025562;28;20233;-78
2021/01/26 04:27:56;;;;;;;26.87;17.30;;;;;;;0.15;83.14;100019.84;5032251;28;20230;-78
2021/01/26 04:30:22;;;;;;;24.30;16.03;;;;;;;0.15;82.85;100019.00;5029953;28;21758;-78
2021/01/26 04:32:56;;;;;;;26.90;16.10;;;;;;;0.16;82.95;100023.34;5025354;28;20198;-78
2021/01/26 04:35:22;;;;;;;25.53;15.87;;;;;;;0.15;82.89;100022.47;5029824;28;20294;-78
2021/01/26 04:37:48;;;;;;;29.67;17.53;;;;;;;0.16;83.12;100018.97;5025071;28;20251;-78
2021/01/26 04:40:15;;;;;;;27.37;16.30;;;;;;;0.17;83.40;100023.28;5021699;28;20670;-78
2021/01/26 04:42:42;;;;;;;28.13;17.63;;;;;;;0.18;83.43;100021.53;5031515;28;20298;-78
2021/01/26 04:45:13;;;;;;;30.07;17.53;;;;;;;0.17;83.40;100023.28;5034915;28;20237;-79
2021/01/26 04:47:46;;;;;;;23.57;15.73;;;;;;;0.16;83.40;100024.19;5033555;28;20226;-78
2021/01/26 04:50:28;;;;;;;26.33;17.20;;;;;;;0.17;83.41;100018.06;5027104;28;20205;-78
2021/01/26 04:53:08;;;;;;;24.40;16.43;;;;;;;0.18;83.42;100024.16;5019658;28;20206;-78
2021/01/26 04:55:48;;;;;;;23.50;15.00;;;;;;;0.17;83.84;100027.66;5033477;28;20240;-78
2021/01/26 04:58:34;;;;;;;28.23;16.93;;;;;;;0.16;83.80;100028.56;5033472;28;20203;-78
2021/01/26 05:01:13;;;;;;;28.20;17.07;;;;;;;0.16;83.73;100031.19;5025570;28;20203;-78
2021/01/26 05:03:59;;;;;;;26.67;17.03;;;;;;;0.15;83.99;100022.47;5035364;28;20225;-79
2021/01/26 05:06:33;;;;;;;25.27;15.80;;;;;;;0.16;83.87;100025.94;5032321;28;20589;-79
2021/01/26 05:09:02;;;;;;;24.17;15.20;;;;;;;0.15;83.83;100027.72;5038493;28;20210;-78
2021/01/26 05:11:32;;;;;;;23.03;15.50;;;;;;;0.15;83.91;100038.19;5032430;28;20206;-78
2021/01/26 05:14:02;;;;;;;23.37;15.77;;;;;;;0.16;84.21;100036.44;5037120;28;20356;-78
2021/01/26 05:16:33;;;;;;;22.13;15.33;;;;;;;0.17;84.17;100036.38;5025803;28;20222;-78
2021/01/26 05:19:07;;;;;;;25.77;16.03;;;;;;;0.18;84.10;100034.63;5020932;28;20211;-79
2021/01/26 05:21:43;;;;;;;27.27;17.13;;;;;;;0.19;84.23;100041.53;5018201;28;20237;-78
2021/01/26 05:24:15;;;;;;;23.20;15.90;;;;;;;0.20;84.06;100038.03;5028780;28;20240;-78
2021/01/26 05:26:42;;;;;;;22.13;14.57;;;;;;;0.22;84.39;100041.47;5030083;28;20245;-79
2021/01/26 05:29:09;;;;;;;22.50;15.30;;;;;;;0.22;84.23;100039.69;5024443;28;20207;-78
2021/01/26 05:31:35;;;;;;;20.37;13.90;;;;;;;0.25;84.36;100036.13;5023005;28;20223;-79
2021/01/26 05:34:07;;;;;;;17.53;12.53;;;;;;;0.26;84.87;100043.94;5023879;28;20745;-79
2021/01/26 05:36:35;;;;;;;16.90;12.40;;;;;;;0.28;84.47;100046.50;5024881;28;20202;-78
2021/01/26 05:39:01;;;;;;;17.43;12.30;;;;;;;0.31;84.48;100042.03;5023160;28;20556;-78
2021/01/26 05:41:27;;;;;;;13.97;10.27;;;;;;;0.34;84.51;100051.56;5023402;28;20270;-78
2021/01/26 05:43:57;;;;;;;15.73;10.93;;;;;;;0.35;84.59;100055.91;5024167;28;20237;-79
2021/01/26 05:46:40;;;;;;;15.80;11.47;;;;;;;0.37;84.69;100061.94;5024024;28;20238;-78
2021/01/26 05:49:06;;;;;;;13.90;10.60;;;;;;;0.40;84.43;100066.22;5023947;28;20282;-79
2021/01/26 05:51:36;;;;;;;14.03;10.50;;;;;;;0.43;84.73;100072.22;5022708;28;20221;-79
2021/01/26 05:54:05;;;;;;;15.73;10.57;;;;;;;0.46;84.71;100076.50;5025817;28;20231;-78
2021/01/26 05:56:31;;;;;;;13.27;10.13;;;;;;;0.48;84.65;100072.94;5028515;28;20202;-78
2021/01/26 05:58:57;;;;;;;13.37;9.77;;;;;;;0.51;84.81;100085.97;5032342;28;20213;-79
2021/01/26 06:01:29;;;;;;;14.40;9.57;;;;;;;0.53;84.78;100080.66;5023367;28;20213;-79
2021/01/26 06:04:07;;;;;;;11.87;9.53;;;;;;;0.56;84.71;100093.66;5017631;28;20222;-79
2021/01/26 06:06:48;;;;;;;13.70;9.83;;;;;;;0.58;84.62;100092.69;5034968;28;20233;-79
2021/01/26 06:09:27;;;;;;;12.27;9.37;;;;;;;0.62;84.63;100093.47;5032461;28;20249;-80
2021/01/26 06:12:04;;;;;;;11.47;8.47;;;;;;;0.63;84.76;100096.03;5023119;28;20565;-79
2021/01/26 06:14:30;;;;;;;11.97;9.17;;;;;;;0.68;84.95;100099.38;5024331;28;20223;-79
2021/01/26 06:17:03;;;;;;;10.53;8.07;;;;;;;0.69;84.92;100114.19;5034818;28;20205;-79
2021/01/26 06:19:29;;;;;;;10.20;8.63;;;;;;;0.71;85.11;100114.16;5033185;28;20203;-80
2021/01/26 06:21:56;;;;;;;11.10;8.53;;;;;;;0.74;84.80;100113.16;5027228;28;20613;-80
2021/01/26 06:24:25;;;;;;;12.47;9.23;;;;;;;0.76;85.02;100114.00;5025794;28;20700;-80
2021/01/26 06:27:06;;;;;;;13.50;9.27;;;;;;;0.78;85.07;100120.03;5026300;28;20222;-79
2021/01/26 06:29:38;;;;;;;11.67;8.43;;;;;;;0.80;85.16;100128.72;5029493;28;20202;-79
2021/01/26 06:32:18;;;;;;;12.33;8.40;;;;;;;0.80;85.16;100126.94;5023070;28;20319;-79
2021/01/26 06:35:09;;;;;;;11.60;8.30;;;;;;;0.81;84.82;100133.06;5025334;28;20225;-79
2021/01/26 06:37:54;;;;;;;11.70;8.60;;;;;;;0.81;85.03;100136.53;5031914;28;20286;-79
2021/01/26 06:40:43;;;;;;;12.30;9.00;;;;;;;0.83;85.15;100141.72;5023720;28;20198;-78
2021/01/26 06:43:17;;;;;;;12.13;8.50;;;;;;;0.83;85.09;100152.22;5029316;28;20615;-80
2021/01/26 06:45:54;;;;;;;11.73;9.17;;;;;;;0.83;85.25;100147.84;5028833;28;20223;-80
2021/01/26 06:48:49;;;;;;;13.17;9.33;;;;;;;0.83;84.94;100155.69;5013069;28;20206;-80
2021/01/26 06:51:32;;;;;;;12.80;9.93;;;;;;;0.84;84.97;100164.41;5016126;28;20203;-80
2021/01/26 06:54:16;;;;;;;16.17;10.53;;;;;;;0.83;84.63;100160.94;5018375;28;20688;-79
2021/01/26 06:57:04;;;;;;;12.80;9.67;;;;;;;0.84;85.24;100182.78;5016038;28;20205;-81
2021/01/26 06:59:54;;;;;;;13.60;10.63;;;;;;;0.82;85.15;100172.31;5023535;28;20591;-81
2021/01/26 07:02:44;;;;;;;15.00;10.67;;;;;;;0.82;85.05;100189.81;5026748;28;20640;-79
2021/01/26 07:05:24;;;;;;;14.80;10.73;;;;;;;0.81;84.75;100194.19;5023049;28;20695;-78
2021/01/26 07:08:20;;;;;;;15.43;11.10;;;;;;;0.80;85.28;100202.13;5027404;28;20305;-80
2021/01/26 07:11:05;;;;;;;17.40;11.40;;;;;;;0.80;84.94;100215.22;5031310;28;20209;-80
2021/01/26 07:13:35;;;;;;;17.23;11.70;;;;;;;0.80;85.08;100223.09;5031243;28;20225;-79
2021/01/26 07:16:17;;;;;;;17.10;11.83;;;;;;;0.79;85.32;100227.47;5027347;28;20214;-80
2021/01/26 07:19:24;;;;;;;16.80;11.80;;;;;;;0.80;85.22;100230.94;5021187;28;20211;-79
2021/01/26 07:22:16;;;;;;;18.57;11.70;;;;;;;0.78;85.15;100233.59;5031321;28;20206;-80
2021/01/26 07:24:48;;;;;;;19.83;12.23;;;;;;;0.79;85.09;100244.94;5031082;28;20383;-80
2021/01/26 07:27:40;;;;;;;16.60;11.93;;;;;;;0.79;85.23;100256.28;5022356;28;20218;-80
2021/01/26 07:30:15;;;;;;;20.60;13.57;;;;;;;0.80;85.32;100262.41;5030061;28;20206;-79
2021/01/26 07:32:49;;;;;;;20.07;14.00;;;;;;;0.81;85.52;100259.72;5029534;28;20198;-79
2021/01/26 07:35:20;;;;;;;21.97;14.30;;;;;;;0.82;85.30;100268.47;5031273;28;20301;-78
2021/01/26 07:37:55;;;;;;;22.67;14.27;;;;;;;0.82;85.31;100276.31;5027181;28;20558;-79
2021/01/26 07:40:29;;;;;;;21.83;14.47;;;;;;;0.82;85.45;100290.28;5022610;28;20209;-80
2021/01/26 07:43:06;;;;;;;23.20;14.10;;;;;;;0.83;85.25;100291.16;5020413;28;20204;-78
2021/01/26 07:45:35;;;;;;;24.17;14.67;;;;;;;0.84;85.27;100292.88;5020013;28;20226;-79
2021/01/26 07:48:10;;;;;;;25.30;15.30;;;;;;;0.84;85.43;100309.47;5021738;28;20262;-79
2021/01/26 07:50:40;;;;;;;26.00;16.13;;;;;;;0.84;85.31;100312.09;5022985;28;20217;-80
2021/01/26 07:53:17;;;;;;;27.00;16.90;;;;;;;0.84;85.59;100330.44;5022231;28;20593;-80
2021/01/26 07:55:48;;;;;;;28.87;18.40;;;;;;;0.86;85.43;100330.38;5027847;28;20238;-80
2021/01/26 07:58:16;;;;;;;25.97;15.67;;;;;;;0.87;85.55;100334.72;5027681;28;20712;-80
2021/01/26 08:00:46;;;;;;;29.93;17.43;;;;;;;0.85;85.44;100340.00;5026842;28;20203;-79
2021/01/26 08:03:12;;;;;;;30.57;17.53;;;;;;;0.86;85.67;100333.00;5027141;28;20289;-81
2021/01/26 08:05:45;;;;;;;31.00;17.63;;;;;;;0.85;85.54;100332.16;5028720;28;20227;-79
2021/01/26 08:08:20;;;;;;;34.07;18.90;;;;;;;0.86;85.77;100343.50;5020598;28;20290;-79
2021/01/26 08:10:47;;;;;;;32.33;17.47;;;;;;;0.85;85.45;100344.41;5026892;28;20197;-79
2021/01/26 08:13:25;;;;;;;35.30;19.40;;;;;;;0.84;85.49;100348.78;5021849;28;20199;-79
2021/01/26 08:15:53;;;;;;;33.73;18.20;;;;;;;0.84;85.63;100354.03;5019241;28;20301;-80
2021/01/26 08:18:25;;;;;;;37.50;19.83;;;;;;;0.85;85.80;100357.50;5027770;28;20203;-79
2021/01/26 08:20:51;;;;;;;38.07;19.10;;;;;;;0.87;85.50;100363.56;5022570;28;21749;-80
2021/01/26 08:23:24;;;;;;;33.70;18.93;;;;;;;0.87;85.57;100366.19;5021461;28;20799;-78
2021/01/26 08:25:53;;;;;;;34.27;17.87;;;;;;;0.87;85.59;100363.56;5021351;28;20198;-79
2021/01/26 08:28:47;;;;;;;43.87;21.80;;;;;;;0.86;85.70;100370.56;5022260;28;20230;-78
2021/01/26 08:31:27;;;;;;;39.67;20.20;;;;;;;0.86;85.66;100370.56;5016063;28;20203;-79
2021/01/26 08:33:56;;;;;;;41.83;19.60;;;;;;;0.86;85.79;100372.34;5018695;28;20284;-79
2021/01/26 08:36:32;;;;;;;39.87;18.77;;;;;;;0.86;85.88;100381.06;5017110;28;20206;-79
2021/01/26 08:39:02;;;;;;;39.33;18.83;;;;;;;0.86;85.92;100391.53;5018326;28;20660;-79
2021/01/26 08:41:52;;;;;;;45.20;21.17;;;;;;;0.86;85.86;100385.44;5021045;28;21218;-80
2021/01/26 08:44:52;;;;;;;41.50;20.33;;;;;;;0.87;85.63;100395.88;5021089;28;20228;-79
2021/01/26 08:47:41;;;;;;;37.60;19.73;;;;;;;0.87;85.81;100409.00;5020777;28;20250;-80
2021/01/26 08:50:36;;;;;;;41.23;19.83;;;;;;;0.87;86.12;100414.25;5019577;28;20202;-79
2021/01/26 08:53:19;;;;;;;36.23;18.37;;;;;;;0.88;85.92;100430.84;4998552;28;20701;-78
2021/01/26 08:55:47;;;;;;;40.33;19.60;;;;;;;0.90;85.95;100439.50;5021839;28;20678;-78
2021/01/26 08:58:38;;;;;;;38.63;18.73;;;;;;;0.89;85.83;100451.78;5020930;28;20207;-79
2021/01/26 09:01:06;;;;;;;37.03;17.53;;;;;;;0.90;85.89;100449.97;5018962;28;20735;-77
2021/01/26 09:03:39;;;;;;;44.03;20.17;;;;;;;0.90;86.12;100449.97;5018439;28;20203;-79
2021/01/26 09:06:11;;;;;;;36.17;17.70;;;;;;;0.91;85.78;100462.19;5021952;28;20266;-79
2021/01/26 09:08:55;;;;;;;35.30;18.27;;;;;;;0.90;85.98;100470.94;5021626;28;20716;-79
2021/01/26 09:11:28;;;;;;;34.43;17.67;;;;;;;0.89;85.99;100472.75;5018471;28;20664;-79
2021/01/26 09:14:01;;;;;;;35.97;17.87;;;;;;;0.90;85.99;100482.31;5017056;28;20234;-79
2021/01/26 09:16:31;;;;;;;35.97;18.00;;;;;;;0.90;86.34;100487.53;5016206;28;20199;-79
2021/01/26 09:19:01;;;;;;;41.27;20.00;;;;;;;0.92;86.32;100482.25;5019269;28;20638;-79
2021/01/26 09:21:31;;;;;;;41.00;19.87;;;;;;;0.93;86.21;100486.59;5019721;28;20729;-79
2021/01/26 09:23:58;;;;;;;41.23;19.53;;;;;;;0.93;86.05;100500.56;5019822;28;20231;-79
2021/01/26 09:26:26;;;;;;;47.50;21.60;;;;;;;0.94;86.09;100498.81;5021295;28;20462;-79
2021/01/26 09:28:52;;;;;;;44.33;20.73;;;;;;;0.92;86.01;100501.47;5018499;28;20203;-79
2021/01/26 09:31:22;;;;;;;51.07;22.07;;;;;;;0.95;86.04;100505.78;5014102;28;20213;-78
2021/01/26 09:33:59;;;;;;;46.17;21.33;;;;;;;0.96;86.29;100504.88;5015982;28;20218;-78
2021/01/26 09:36:25;;;;;;;51.17;22.20;;;;;;;0.99;86.01;100512.69;5015948;28;20198;-79
2021/01/26 09:38:51;;;;;;;50.30;21.87;;;;;;;0.99;86.14;100508.28;5012844;28;20207;-78
2021/01/26 09:41:21;;;;;;;48.70;21.43;;;;;;;1.01;86.28;100513.50;5015476;28;20202;-78
2021/01/26 09:43:49;;;;;;;49.30;22.00;;;;;;;1.03;86.14;100509.06;5018264;28;20218;-77
2021/01/26 09:46:25;;;;;;;49.77;21.00;;;;;;;1.03;85.88;100506.47;5016946;28;20211;-78
2021/01/26 09:48:55;;;;;;;49.73;22.07;;;;;;;1.03;86.28;100509.94;5010443;28;20698;-78
2021/01/26 09:51:24;;;;;;;49.90;21.63;;;;;;;1.05;86.12;100523.00;5014516;28;20255;-77
2021/01/26 09:54:00;;;;;;;47.87;20.67;;;;;;;1.04;86.04;100537.03;5013367;28;20223;-79
2021/01/26 09:56:27;;;;;;;51.07;22.67;;;;;;;1.06;86.07;100543.09;5013209;28;20248;-79
2021/01/26 09:58:53;;;;;;;53.10;22.87;;;;;;;1.06;86.48;100532.59;5016284;28;20294;-77
2021/01/26 10:01:20;;;;;;;59.87;25.27;;;;;;;1.07;86.22;100551.81;5016792;28;20209;-78
2021/01/26 10:03:47;;;;;;;57.57;24.13;;;;;;;1.08;86.27;100554.38;5015571;28;20231;-78
2021/01/26 10:06:14;;;;;;;54.03;22.93;;;;;;;1.08;86.22;100549.13;5015369;28;20207;-78
2021/01/26 10:08:40;;;;;;;63.80;26.17;;;;;;;1.08;86.19;100570.13;4995898;28;20694;-78
2021/01/26 10:11:12;;;;;;;59.63;25.50;;;;;;;1.10;86.49;100570.06;4995814;28;20214;-78
2021/01/26 10:13:39;;;;;;;63.10;24.70;;;;;;;1.11;86.22;100569.19;4996063;28;20262;-78
2021/01/26 10:16:31;;;;;;;64.73;25.97;;;;;;;1.12;86.26;100576.16;5008528;28;20657;-78
2021/01/26 10:18:59;;;;;;;62.90;25.30;;;;;;;1.11;86.05;100577.91;4995065;28;20872;-78
2021/01/26 10:21:28;;;;;;;60.70;25.67;;;;;;;1.12;86.18;100577.00;5025306;28;20286;-78
2021/01/26 10:24:07;;;;;;;66.10;27.40;;;;;;;1.14;86.50;100579.59;5018863;28;20242;-78
2021/01/26 10:26:36;;;;;;;67.87;27.30;;;;;;;1.13;86.26;100576.09;5018040;28;20211;-78
2021/01/26 10:29:31;;;;;;;72.07;28.33;;;;;;;1.15;86.13;100589.19;5021209;28;20230;-78
2021/01/26 10:31:59;;;;;;;66.53;28.00;;;;;;;1.16;86.37;100589.16;5018733;28;20203;-78
2021/01/26 10:34:40;;;;;;;63.40;27.10;;;;;;;1.17;86.67;100596.13;5013672;28;20234;-78
2021/01/26 10:37:30;;;;;;;68.27;27.43;;;;;;;1.18;86.70;100610.97;5018819;28;20202;-78
2021/01/26 10:40:11;;;;;;;79.10;34.53;;;;;;;1.20;86.47;100606.53;5007637;28;20646;-78
2021/01/26 10:42:40;;;;;;;67.30;28.63;;;;;;;1.22;86.44;100606.50;5015180;28;20230;-78
2021/01/26 10:45:07;;;;;;;66.43;27.50;;;;;;;1.22;86.57;100615.25;5014380;28;20254;-78
2021/01/26 10:47:36;;;;;;;70.23;31.40;;;;;;;1.23;86.76;100614.34;5016770;28;20226;-78
2021/01/26 10:50:05;;;;;;;71.30;31.07;;;;;;;1.22;86.11;100615.25;5014579;28;20272;-78
2021/01/26 10:52:38;;;;;;;65.60;28.73;;;;;;;1.24;86.51;100616.06;5008299;28;20211;-78
2021/01/26 10:55:07;;;;;;;67.03;30.27;;;;;;;1.25;86.17;100619.56;5014710;28;20696;-78
2021/01/26 10:57:33;;;;;;;56.53;27.07;;;;;;;1.24;86.79;100618.69;5014822;28;20253;-79
2021/01/26 10:59:59;;;;;;;55.07;25.23;;;;;;;1.24;86.20;100626.56;5015164;28;20767;-79
2021/01/26 11:02:25;;;;;;;67.30;29.63;;;;;;;1.25;86.31;100635.28;5014791;28;20206;-79
2021/01/26 11:04:51;;;;;;;59.20;26.37;;;;;;;1.24;86.43;100634.44;5014631;28;20654;-79
2021/01/26 11:07:18;;;;;;;56.80;27.10;;;;;;;1.25;86.43;100641.41;5014346;28;20226;-78
2021/01/26 11:09:48;;;;;;;56.63;25.53;;;;;;;1.25;86.29;100649.28;5015429;28;20735;-79
2021/01/26 11:12:14;;;;;;;63.30;27.40;;;;;;;1.25;86.07;100646.66;5016541;28;20261;-78
2021/01/26 11:14:41;;;;;;;59.27;27.17;;;;;;;1.25;86.45;100654.50;5016863;28;20265;-79
2021/01/26 11:17:07;;;;;;;62.30;26.97;;;;;;;1.26;86.21;100652.72;5015419;28;20195;-79
2021/01/26 11:19:33;;;;;;;61.93;27.83;;;;;;;1.26;86.22;100653.59;5020503;28;20684;-79
2021/01/26 11:21:59;;;;;;;65.03;28.87;;;;;;;1.26;86.49;100650.97;5015861;28;20211;-78
2021/01/26 11:24:25;;;;;;;60.50;29.00;;;;;;;1.28;86.31;100659.66;5014666;28;20273;-79
2021/01/26 11:26:52;;;;;;;75.87;34.57;;;;;;;1.28;86.61;100659.66;5014396;28;20233;-79
2021/01/26 11:29:18;;;;;;;60.17;25.93;;;;;;;1.29;86.19;100668.41;5013403;28;20207;-78
2021/01/26 11:31:44;;;;;;;59.40;25.87;;;;;;;1.29;85.77;100663.16;5014906;28;20209;-78
2021/01/26 11:34:10;;;;;;;59.30;26.43;;;;;;;1.29;86.01;100664.00;5020779;28;20227;-79
2021/01/26 11:36:36;;;;;;;55.83;25.07;;;;;;;1.29;86.29;100660.53;5023330;28;20204;-79
2021/01/26 11:39:02;;;;;;;55.53;25.73;;;;;;;1.26;86.06;100661.47;5028119;28;20206;-79
2021/01/26 11:41:28;;;;;;;57.43;25.63;;;;;;;1.27;86.15;100668.44;5027695;28;20565;-79